Time;durP1;ratioP1;P1;durP2;ratioP2;P2;SDS_P1;SDS_P2;PMS_P1;PMS_P2;Temp;Humidity;BMP_temperature;BMP_pressure;BME280_temperature;BME280_humidity;BME280_pressure;Samples;Min_cycle;Max_cycle;Signal;HPM_P1;HPM_P2
2022/01/26 00:07:35;;;;;;;;;;;;;;;2.15;79.75;102041.06;4976479;28;1497;-83
2022/01/26 00:10:00;;;;;;;;;;;;;;;2.12;79.82;102031.50;4977390;28;1977;-84
2022/01/26 00:12:25;;;;;;;;;;;;;;;2.10;79.70;102036.25;4978162;28;1189;-82
2022/01/26 00:14:50;;;;;;;;;;;;;;;2.13;79.83;102040.41;4977868;28;1242;-83
2022/01/26 00:17:15;;;;;;;;;;;;;;;2.06;79.78;102045.75;4977583;28;928;-83
2022/01/26 00:19:54;;;;;;;;;;;;;;;2.04;80.00;102049.66;4977766;28;1050;-83
2022/01/26 00:22:39;;;;;;;;;;;;;;;2.03;80.22;102042.59;4973660;28;1529;-83
2022/01/26 00:26:02;;;;;;;;;;;;;;;2.07;80.52;102043.88;4975851;28;1269;-83
2022/01/26 00:27:55;;;;;;;;;;;;;;;2.10;80.79;102048.91;4979188;28;1944;-83
2022/01/26 00:41:04;;;;;;;;;;;;;;;2.12;80.41;102046.88;4979486;28;763;-83
2022/01/26 00:43:29;;;;;;;;;;;;;;;2.13;80.82;102043.13;4979061;28;862;-84
2022/01/26 00:45:55;;;;;;;;;;;;;;;2.12;81.02;102044.16;4996862;28;1485;-83
2022/01/26 00:48:21;;;;;;;;;;;;;;;2.14;81.04;102047.50;4980634;28;1887;-82
2022/01/26 00:50:50;;;;;;;;;;;;;;;2.12;80.83;102044.16;4998499;28;858;-83
2022/01/26 00:53:16;;;;;;;;;;;;;;;2.08;80.86;102048.25;4998068;28;851;-84
2022/01/26 00:55:41;;;;;;;;;;;;;;;2.08;80.60;102042.84;4980651;28;1299;-85
2022/01/26 00:58:06;;;;;;;;;;;;;;;2.08;80.56;102041.00;4980711;28;1293;-83
2022/01/26 01:00:31;;;;;;;;;;;;;;;2.04;80.33;102030.78;4998134;28;1595;-83
2022/01/26 01:02:57;;;;;;;;;;;;;;;2.06;80.22;102031.41;4980482;28;1213;-83
2022/01/26 01:05:28;;;;;;;;;;;;;;;2.03;80.62;102026.38;4980934;28;1313;-83
2022/01/26 01:08:01;;;;;;;;;;;;;;;2.07;80.50;102030.38;4980797;28;1894;-82
2022/01/26 01:10:27;;;;;;;;;;;;;;;2.08;80.53;102024.78;4983511;28;1580;-83
2022/01/26 01:12:56;;;;;;;;;;;;;;;2.06;80.26;102020.59;4993833;28;1311;-84
2022/01/26 01:15:23;;;;;;;;;;;;;;;2.07;80.60;102014.16;4971292;28;1521;-82
2022/01/26 01:17:53;;;;;;;;;;;;;;;2.07;80.64;102011.47;4968779;28;1565;-83
2022/01/26 01:20:46;;;;;;;;;;;;;;;2.04;80.11;102003.75;4979004;28;883;-83
2022/01/26 01:31:14;;;;;;;;;;;;;;;1.99;80.45;102012.41;4986023;28;1548;-82
2022/01/26 01:33:44;;;;;;;;;;;;;;;1.99;80.41;102017.81;4998627;28;1336;-83
2022/01/26 01:36:11;;;;;;;;;;;;;;;2.04;80.92;102014.56;4980517;28;1393;-84
2022/01/26 01:38:40;;;;;;;;;;;;;;;2.05;80.67;102016.22;4980614;28;1592;-84
2022/01/26 01:41:05;;;;;;;;;;;;;;;2.11;80.94;102013.63;4993640;28;1603;-83
2022/01/26 01:43:30;;;;;;;;;;;;;;;2.13;80.46;102018.81;4960775;28;1280;-83
2022/01/26 01:45:56;;;;;;;;;;;;;;;2.05;80.90;102013.50;4993934;28;1280;-83
2022/01/26 01:48:23;;;;;;;;;;;;;;;1.96;80.87;102009.25;4994148;28;1957;-83
2022/01/26 01:50:51;;;;;;;;;;;;;;;1.91;80.81;102009.81;4961106;28;1594;-84
2022/01/26 01:53:17;;;;;;;;;;;;;;;1.91;80.49;102012.50;4977564;28;1513;-82
2022/01/26 01:55:47;;;;;;;;;;;;;;;1.98;80.22;102007.19;4978642;28;1199;-84
2022/01/26 01:58:12;;;;;;;;;;;;;;;1.95;80.18;102007.59;4975199;28;1706;-82
2022/01/26 02:00:38;;;;;;;;;;;;;;;1.95;80.60;102005.72;4969907;28;1602;-84
2022/01/26 02:03:03;;;;;;;;;;;;;;;1.99;80.22;102006.16;4973302;28;1712;-83
2022/01/26 02:05:29;;;;;;;;;;;;;;;1.94;80.74;102000.50;4980203;28;1614;-82
2022/01/26 02:07:54;;;;;;;;;;;;;;;1.97;80.45;102008.22;4991739;28;1961;-82
2022/01/26 02:10:22;;;;;;;;;;;;;;;1.97;80.26;102006.34;4972408;28;1705;-83
2022/01/26 02:12:51;;;;;;;;;;;;;;;1.98;80.26;101991.81;4961736;28;1240;-84
2022/01/26 02:15:24;;;;;;;;;;;;;;;1.72;80.54;101946.41;4962001;28;1323;-83
2022/01/26 02:18:10;;;;;;;;;;;;;;;2.05;80.51;101994.59;4964356;28;1733;-83
2022/01/26 02:20:53;;;;;;;;;;;;;;;1.99;80.38;101981.88;4993941;28;1851;-83
2022/01/26 02:55:54;;;;;;;;;;;;;;;1.96;80.83;101955.25;4986106;28;1621;-85
2022/01/26 03:03:19;;;;;;;;;;;;;;;1.96;80.70;101947.97;4991559;28;1437;-85
2022/01/26 03:05:52;;;;;;;;;;;;;;;1.93;80.80;101940.25;4978339;28;1644;-84
2022/01/26 03:08:26;;;;;;;;;;;;;;;1.89;81.21;101934.38;4998842;28;1894;-83
2022/01/26 03:10:55;;;;;;;;;;;;;;;1.90;80.86;101930.66;4997623;28;1701;-83
2022/01/26 03:13:25;;;;;;;;;;;;;;;1.91;80.90;101926.09;4992454;28;1263;-84
2022/01/26 03:15:56;;;;;;;;;;;;;;;1.98;81.10;101931.56;4994700;28;1402;-85
2022/01/26 03:18:48;;;;;;;;;;;;;;;1.93;81.41;101924.06;4997623;28;1572;-84
2022/01/26 03:21:13;;;;;;;;;;;;;;;2.01;81.04;101925.81;4995967;28;1520;-82
2022/01/26 03:34:17;;;;;;;;;;;;;;;1.93;81.70;101924.06;4991447;28;1564;-84
2022/01/26 03:36:54;;;;;;;;;;;;;;;1.98;81.73;101915.38;4982353;28;1536;-84
2022/01/26 03:39:20;;;;;;;;;;;;;;;2.00;81.43;101902.53;4983408;28;1209;-84
2022/01/26 03:42:04;;;;;;;;;;;;;;;1.98;81.79;101891.91;4966560;28;1624;-84
2022/01/26 03:44:30;;;;;;;;;;;;;;;1.99;81.48;101898.16;4963856;28;1241;-84
2022/01/26 03:46:55;;;;;;;;;;;;;;;1.96;81.58;101895.84;4996549;28;1509;-84
2022/01/26 03:49:20;;;;;;;;;;;;;;;2.00;81.62;101897.13;4999482;28;1965;-84
2022/01/26 03:51:45;;;;;;;;;;;;;;;1.96;82.22;101891.25;4982703;28;1599;-84
2022/01/26 03:54:11;;;;;;;;;;;;;;;1.94;81.98;101897.91;4983785;28;1285;-84
2022/01/26 03:56:36;;;;;;;;;;;;;;;1.94;82.09;101892.50;4968922;28;1596;-84
2022/01/26 03:59:02;;;;;;;;;;;;;;;1.98;82.25;101882.97;4971611;28;1553;-84
2022/01/26 04:01:27;;;;;;;;;;;;;;;1.99;81.95;101874.69;4979456;28;1525;-83
2022/01/26 04:03:52;;;;;;;;;;;;;;;1.91;82.10;101869.41;4991350;28;1619;-82
2022/01/26 04:24:48;;;;;;;;;;;;;;;1.82;82.76;101909.19;5015807;28;1236;-89
2022/01/26 04:27:23;;;;;;;;;;;;;;;1.80;83.03;101913.91;4980453;28;1201;-88
2022/01/26 04:29:49;;;;;;;;;;;;;;;1.78;82.73;101936.75;4980410;28;2002;-89
2022/01/26 04:32:15;;;;;;;;;;;;;;;1.71;83.05;101925.84;4980628;28;1232;-90
2022/01/26 04:34:41;;;;;;;;;;;;;;;1.75;82.96;101902.88;4983822;28;1317;-90
2022/01/26 04:39:57;;;;;;;;;;;;;;;1.74;83.05;101919.25;5011796;28;661;-89
2022/01/26 04:42:40;;;;;;;;;;;;;;;1.73;82.94;101915.69;4980514;28;1635;-89
2022/01/26 04:45:09;;;;;;;;;;;;;;;1.70;83.13;101929.56;4980518;28;1348;-89
2022/01/26 04:47:34;;;;;;;;;;;;;;;1.68;82.70;101930.78;4980012;28;1596;-89
2022/01/26 04:50:00;;;;;;;;;;;;;;;1.66;82.83;101946.31;4988689;28;1902;-89
2022/01/26 04:52:26;;;;;;;;;;;;;;;1.64;82.97;101938.41;4994207;28;1644;-90
2022/01/26 04:54:51;;;;;;;;;;;;;;;1.67;82.81;101942.63;4994351;28;1502;-89
2022/01/26 04:57:17;;;;;;;;;;;;;;;1.71;83.09;101947.44;4987045;28;1541;-88
2022/01/26 04:59:42;;;;;;;;;;;;;;;1.72;82.88;101941.00;4979753;28;1292;-90
2022/01/26 05:02:07;;;;;;;;;;;;;;;1.73;83.00;101929.19;4979669;28;1243;-90
2022/01/26 05:04:33;;;;;;;;;;;;;;;1.75;82.85;101921.75;4979659;28;1185;-89
2022/01/26 05:06:58;;;;;;;;;;;;;;;1.77;83.00;101916.19;4979551;28;1548;-90
2022/01/26 05:09:24;;;;;;;;;;;;;;;1.82;82.88;101932.63;4997140;28;1898;-89
2022/01/26 05:11:52;;;;;;;;;;;;;;;1.79;82.77;101923.03;4979502;28;1006;-89
2022/01/26 05:14:18;;;;;;;;;;;;;;;1.74;82.94;101917.38;4997215;28;1543;-88
2022/01/26 05:16:44;;;;;;;;;;;;;;;1.66;82.51;101914.78;4979805;28;1252;-89
2022/01/26 05:19:09;;;;;;;;;;;;;;;1.70;82.71;101907.97;4979546;28;1485;-89
2022/01/26 05:21:35;;;;;;;;;;;;;;;1.75;82.79;101902.03;4979436;28;1174;-90
2022/01/26 05:24:00;;;;;;;;;;;;;;;1.70;82.81;101894.47;4996370;28;866;-90
2022/01/26 05:26:25;;;;;;;;;;;;;;;1.66;82.91;101904.00;4979550;28;1337;-91
2022/01/26 05:28:51;;;;;;;;;;;;;;;1.68;82.95;101893.00;5001524;28;1883;-90
2022/01/26 05:31:16;;;;;;;;;;;;;;;1.67;82.97;101908.38;4979734;28;1416;-90
2022/01/26 05:33:42;;;;;;;;;;;;;;;1.65;82.57;101920.38;4980992;28;1465;-91
2022/01/26 05:36:07;;;;;;;;;;;;;;;1.68;82.36;101934.34;4979167;28;1656;-90
2022/01/26 05:38:32;;;;;;;;;;;;;;;1.69;82.66;101927.06;4979073;28;1161;-89
2022/01/26 05:41:01;;;;;;;;;;;;;;;1.67;82.80;101929.13;4996563;28;1033;-89
2022/01/26 05:43:27;;;;;;;;;;;;;;;1.69;82.62;101927.91;4979229;28;1278;-90
2022/01/26 05:45:55;;;;;;;;;;;;;;;1.71;82.55;101922.31;4978935;28;1264;-91
2022/01/26 05:48:21;;;;;;;;;;;;;;;1.68;82.53;101928.94;4979094;28;1961;-92
2022/01/26 05:50:52;;;;;;;;;;;;;;;1.71;82.55;101928.53;4979066;28;1489;-90
2022/01/26 05:53:20;;;;;;;;;;;;;;;1.63;82.81;101928.63;4978793;28;1306;-90
2022/01/26 05:55:46;;;;;;;;;;;;;;;1.52;82.84;101921.03;4959756;28;1182;-90
2022/01/26 05:58:27;;;;;;;;;;;;;;;1.51;82.82;101922.06;4976931;28;1295;-89
2022/01/26 06:00:54;;;;;;;;;;;;;;;1.53;82.70;101906.53;4996123;28;1231;-90
2022/01/26 06:03:28;;;;;;;;;;;;;;;1.56;82.64;101902.59;4979014;28;1368;-90
2022/01/26 06:05:54;;;;;;;;;;;;;;;1.57;82.54;101896.19;4978475;28;1364;-90
2022/01/26 06:08:19;;;;;;;;;;;;;;;1.59;82.56;101894.13;4978027;28;1902;-90
2022/01/26 06:10:44;;;;;;;;;;;;;;;1.64;82.65;101899.78;4978437;28;1308;-90
2022/01/26 06:13:09;;;;;;;;;;;;;;;1.62;82.24;101899.97;4977928;28;1273;-89
2022/01/26 06:15:35;;;;;;;;;;;;;;;1.54;82.59;101897.38;4977799;28;1545;-88
2022/01/26 06:18:00;;;;;;;;;;;;;;;1.50;82.46;101896.94;4978276;28;1324;-88
2022/01/26 06:20:25;;;;;;;;;;;;;;;1.56;82.98;101889.94;4995956;28;911;-90
2022/01/26 06:22:50;;;;;;;;;;;;;;;1.54;82.57;101889.28;4978471;28;1080;-90
2022/01/26 06:25:18;;;;;;;;;;;;;;;1.46;82.55;101878.59;4978753;28;1412;-90
2022/01/26 06:27:44;;;;;;;;;;;;;;;1.56;82.56;101867.50;4978432;28;1217;-89
2022/01/26 06:30:11;;;;;;;;;;;;;;;1.55;82.83;101872.06;4978537;28;1910;-91
2022/01/26 06:32:37;;;;;;;;;;;;;;;1.56;82.85;101887.25;4978550;28;1229;-90
2022/01/26 06:35:03;;;;;;;;;;;;;;;1.57;82.99;101875.44;4977283;28;1298;-90
2022/01/26 06:37:28;;;;;;;;;;;;;;;1.57;82.71;101875.44;4978057;28;1300;-90
2022/01/26 06:39:53;;;;;;;;;;;;;;;1.53;82.81;101885.75;4977964;28;1186;-89
2022/01/26 06:42:20;;;;;;;;;;;;;;;1.48;82.62;101877.38;4977696;28;1289;-89
2022/01/26 06:47:37;;;;;;;;;;;;;;;1.41;82.68;101902.59;4995651;28;898;-88
2022/01/26 06:50:03;;;;;;;;;;;;;;;1.30;82.35;101894.97;4978076;28;1898;-89
2022/01/26 06:52:29;;;;;;;;;;;;;;;1.29;82.26;101895.97;4977667;28;1288;-90
2022/01/26 06:54:54;;;;;;;;;;;;;;;1.32;82.18;101895.63;4977767;28;1300;-90
2022/01/26 06:57:19;;;;;;;;;;;;;;;1.34;82.04;101896.28;4977987;28;994;-89
2022/01/26 06:59:45;;;;;;;;;;;;;;;1.36;82.35;101897.75;4978143;28;842;-90
2022/01/26 07:02:10;;;;;;;;;;;;;;;1.35;82.10;101900.66;4977542;28;1293;-89
2022/01/26 07:04:35;;;;;;;;;;;;;;;1.32;82.35;101884.84;4977717;28;1269;-89
2022/01/26 07:07:00;;;;;;;;;;;;;;;1.28;82.39;101887.06;4977830;28;1150;-89
2022/01/26 07:09:26;;;;;;;;;;;;;;;1.25;82.34;101889.31;4977492;28;1906;-90
2022/01/26 07:11:51;;;;;;;;;;;;;;;1.27;82.29;101893.50;4977689;28;990;-89
2022/01/26 07:22:12;;;;;;;;;;;;;;;1.36;82.09;101892.34;4996858;28;862;-89
2022/01/26 07:24:37;;;;;;;;;;;;;;;1.34;82.44;101898.97;4978706;28;1174;-89
2022/01/26 07:27:03;;;;;;;;;;;;;;;1.35;82.40;101901.50;4978246;28;1284;-89
2022/01/26 07:29:28;;;;;;;;;;;;;;;1.37;82.23;101896.72;4998316;28;1887;-89
2022/01/26 07:31:53;;;;;;;;;;;;;;;1.38;82.59;101893.00;4977446;28;903;-89
2022/01/26 07:34:21;;;;;;;;;;;;;;;1.44;82.35;101891.44;4977298;28;1189;-90
2022/01/26 07:36:49;;;;;;;;;;;;;;;1.45;82.52;101896.63;4977484;28;1281;-89
2022/01/26 07:39:17;;;;;;;;;;;;;;;1.41;82.55;101883.72;4977248;28;1259;-90
2022/01/26 07:41:43;;;;;;;;;;;;;;;1.37;82.22;101880.53;4977265;28;1431;-89
2022/01/26 07:44:08;;;;;;;;;;;;;;;1.35;82.26;101866.44;4994695;28;836;-89
2022/01/26 07:46:33;;;;;;;;;;;;;;;1.30;82.36;101868.84;4976839;28;1197;-90
2022/01/26 07:48:59;;;;;;;;;;;;;;;1.33;82.33;101873.03;4977088;28;1906;-90
2022/01/26 07:51:24;;;;;;;;;;;;;;;1.38;82.48;101876.81;4992030;28;1085;-88
2022/01/26 07:53:50;;;;;;;;;;;;;;;1.39;82.47;101889.28;4973283;28;1170;-90
2022/01/26 07:56:15;;;;;;;;;;;;;;;1.44;82.43;101888.75;4977049;28;1320;-90
2022/01/26 07:58:41;;;;;;;;;;;;;;;1.46;82.49;101889.38;4977060;28;1302;-89
2022/01/26 08:01:06;;;;;;;;;;;;;;;1.50;82.49;101893.41;4977331;28;1400;-90
2022/01/26 08:03:33;;;;;;;;;;;;;;;1.51;82.39;101895.91;4977045;28;1216;-90
2022/01/26 08:06:02;;;;;;;;;;;;;;;1.51;82.47;101893.22;4977020;28;1370;-90
2022/01/26 08:08:28;;;;;;;;;;;;;;;1.50;82.38;101886.13;4976883;28;1906;-89
2022/01/26 08:10:53;;;;;;;;;;;;;;;1.50;82.35;101883.44;4976848;28;1312;-90
2022/01/26 08:13:19;;;;;;;;;;;;;;;1.51;82.53;101878.88;4976781;28;1182;-90
2022/01/26 08:15:44;;;;;;;;;;;;;;;1.50;82.60;101861.00;4976820;28;1247;-89
2022/01/26 08:18:09;;;;;;;;;;;;;;;1.55;82.38;101880.16;4976880;28;852;-89
2022/01/26 08:20:34;;;;;;;;;;;;;;;1.53;82.41;101876.84;4993225;28;1054;-89
2022/01/26 08:22:59;;;;;;;;;;;;;;;1.57;82.10;101885.38;4972349;28;1045;-89
2022/01/26 08:25:25;;;;;;;;;;;;;;;1.54;82.38;101886.59;4977120;28;1362;-89
2022/01/26 08:28:00;;;;;;;;;;;;;;;1.51;82.09;101895.91;4977285;28;1233;-90
2022/01/26 08:30:25;;;;;;;;;;;;;;;1.53;82.50;101895.72;4976908;28;1932;-89
2022/01/26 08:32:50;;;;;;;;;;;;;;;1.44;82.37;101900.38;4976653;28;1162;-89
2022/01/26 08:35:16;;;;;;;;;;;;;;;1.47;82.31;101913.47;4977033;28;1248;-89
2022/01/26 08:37:41;;;;;;;;;;;;;;;1.44;82.23;101888.75;4977119;28;1284;-90
2022/01/26 08:40:06;;;;;;;;;;;;;;;1.42;82.42;101888.94;4976854;28;1165;-89
2022/01/26 08:42:32;;;;;;;;;;;;;;;1.41;82.33;101897.22;4976483;28;1228;-90
2022/01/26 08:44:57;;;;;;;;;;;;;;;1.46;82.55;101910.97;4976572;28;1196;-89
2022/01/26 08:47:22;;;;;;;;;;;;;;;1.47;82.44;101902.69;4994423;28;935;-89
2022/01/26 08:49:47;;;;;;;;;;;;;;;1.49;82.58;101894.41;4977370;28;1894;-90
2022/01/26 08:52:13;;;;;;;;;;;;;;;1.44;82.48;101907.63;4976392;28;1158;-90
2022/01/26 08:54:38;;;;;;;;;;;;;;;1.50;82.23;101901.50;4976722;28;1170;-89
2022/01/26 08:57:03;;;;;;;;;;;;;;;1.48;82.18;101911.63;4977128;28;1269;-88
2022/01/26 08:59:28;;;;;;;;;;;;;;;1.43;82.21;101905.97;4979191;28;1212;-89
2022/01/26 09:01:53;;;;;;;;;;;;;;;1.44;82.35;101903.09;4980092;28;880;-90
2022/01/26 09:04:19;;;;;;;;;;;;;;;1.48;82.51;101907.06;4980028;28;1006;-89
2022/01/26 09:06:56;;;;;;;;;;;;;;;1.53;82.08;101918.13;4980172;28;1308;-90
2022/01/26 09:09:22;;;;;;;;;;;;;;;1.57;82.08;101917.75;4980328;28;1891;-89
2022/01/26 09:11:51;;;;;;;;;;;;;;;1.53;82.31;101909.22;4979753;28;1237;-89
2022/01/26 09:14:22;;;;;;;;;;;;;;;1.54;82.19;101918.97;4980006;28;1248;-89
2022/01/26 09:16:51;;;;;;;;;;;;;;;1.52;82.23;101921.03;4990718;28;1395;-89
2022/01/26 09:19:26;;;;;;;;;;;;;;;1.49;81.96;101918.69;4996590;28;1205;-89
2022/01/26 09:21:52;;;;;;;;;;;;;;;1.49;82.25;101914.13;4986560;28;1311;-88
2022/01/26 09:24:17;;;;;;;;;;;;;;;1.52;82.04;101915.63;4982969;28;1189;-89
2022/01/26 09:26:43;;;;;;;;;;;;;;;1.52;82.34;101915.63;4982091;28;1182;-90
2022/01/26 09:29:08;;;;;;;;;;;;;;;1.49;82.23;101908.75;4980980;28;1871;-89
2022/01/26 09:31:33;;;;;;;;;;;;;;;1.51;82.11;101909.41;5005653;28;1100;-89
2022/01/26 09:33:58;;;;;;;;;;;;;;;1.52;81.72;101912.94;4998465;28;1200;-89
2022/01/26 09:36:23;;;;;;;;;;;;;;;1.50;81.49;101928.47;5000159;28;1252;-89
2022/01/26 09:38:49;;;;;;;;;;;;;;;1.46;81.73;101922.59;4989855;28;1125;-89
2022/01/26 09:41:14;;;;;;;;;;;;;;;1.51;81.87;101931.00;4996550;28;798;-89
2022/01/26 09:43:40;;;;;;;;;;;;;;;1.54;81.62;101935.16;4979506;28;1217;-89
2022/01/26 09:46:05;;;;;;;;;;;;;;;1.51;81.32;101932.84;4979989;28;1177;-88
2022/01/26 09:48:33;;;;;;;;;;;;;;;1.49;81.48;101937.59;4979171;28;1906;-88
2022/01/26 09:50:58;;;;;;;;;;;;;;;1.47;81.34;101937.75;4979115;28;1335;-89
2022/01/26 09:53:28;;;;;;;;;;;;;;;1.50;81.54;101931.16;4978904;28;1280;-90
2022/01/26 09:55:54;;;;;;;;;;;;;;;1.52;81.31;101931.81;4978876;28;1207;-89
2022/01/26 09:58:20;;;;;;;;;;;;;;;1.59;81.48;101930.06;4979052;28;1383;-90
2022/01/26 10:00:46;;;;;;;;;;;;;;;1.56;81.07;101930.41;4979016;28;1239;-89
2022/01/26 10:03:11;;;;;;;;;;;;;;;1.52;81.03;101929.13;4996132;28;1192;-89
2022/01/26 10:05:44;;;;;;;;;;;;;;;1.54;81.14;101924.34;4978770;28;1301;-89
2022/01/26 10:08:22;;;;;;;;;;;;;;;1.49;81.23;101934.88;4979339;28;1894;-89
2022/01/26 10:17:12;;;;;;;;;;;;;;;1.42;80.80;101933.97;4996451;28;1242;-89
2022/01/26 10:19:17;;;;;;;;;;;;;;;1.46;80.92;101941.47;4995718;28;1066;-89
2022/01/26 10:21:47;;;;;;;;;;;;;;;1.47;80.42;101937.75;4978274;28;1248;-89
2022/01/26 10:24:13;;;;;;;;;;;;;;;1.48;80.77;101941.31;4978537;28;1233;-90
2022/01/26 10:26:38;;;;;;;;;;;;;;;1.47;80.45;101958.50;4978609;28;1259;-89
2022/01/26 10:29:04;;;;;;;;;;;;;;;1.42;80.27;101948.28;4976180;28;1898;-89
2022/01/26 10:31:33;;;;;;;;;;;;;;;1.42;79.96;101972.56;4978921;28;1161;-89
2022/01/26 10:33:59;;;;;;;;;;;;;;;1.43;80.12;101944.56;4979405;28;1233;-89
2022/01/26 10:36:24;;;;;;;;;;;;;;;1.45;80.04;101934.41;4978233;28;1268;-89
2022/01/26 10:38:57;;;;;;;;;;;;;;;1.47;79.91;101936.94;4978535;28;1324;-89
2022/01/26 10:41:22;;;;;;;;;;;;;;;1.46;80.04;101941.47;4977934;28;1210;-89
2022/01/26 10:43:48;;;;;;;;;;;;;;;1.59;80.04;101950.81;4978139;28;1359;-89
2022/01/26 10:46:23;;;;;;;;;;;;;;;1.69;80.14;101946.81;4977983;28;1328;-89
2022/01/26 10:49:14;;;;;;;;;;;;;;;1.74;79.56;101938.13;4978061;28;1907;-89
2022/01/26 10:56:51;;;;;;;;;;;;;;;1.78;79.72;101928.66;4995558;28;1190;-90
2022/01/26 10:59:16;;;;;;;;;;;;;;;1.77;79.91;101927.81;4977923;28;1296;-90
2022/01/26 11:01:41;;;;;;;;;;;;;;;1.82;79.65;101925.38;4977698;28;1201;-89
2022/01/26 11:04:07;;;;;;;;;;;;;;;1.88;79.39;101923.78;4977927;28;1261;-90
2022/01/26 11:06:33;;;;;;;;;;;;;;;1.87;79.28;101927.53;4977980;28;1280;-89
2022/01/26 11:09:00;;;;;;;;;;;;;;;1.85;79.66;101911.50;4977667;28;1886;-90
2022/01/26 11:11:26;;;;;;;;;;;;;;;1.90;79.76;101925.25;4977398;28;1250;-89
2022/01/26 11:13:52;;;;;;;;;;;;;;;1.79;79.37;101924.91;4977716;28;1183;-89
2022/01/26 11:16:20;;;;;;;;;;;;;;;1.76;79.74;101930.69;4977515;28;1280;-88
2022/01/26 11:18:53;;;;;;;;;;;;;;;1.73;79.53;101939.16;4978005;28;1315;-90
2022/01/26 11:21:24;;;;;;;;;;;;;;;1.81;79.64;101942.59;4976825;28;1317;-89
2022/01/26 11:23:50;;;;;;;;;;;;;;;1.87;79.62;101939.13;4977359;28;1300;-90
2022/01/26 11:26:22;;;;;;;;;;;;;;;1.80;79.23;101945.47;4977402;28;1308;-89
2022/01/26 11:28:48;;;;;;;;;;;;;;;1.78;79.38;101934.06;4977329;28;1898;-90
2022/01/26 11:31:15;;;;;;;;;;;;;;;1.83;79.29;101945.94;4977113;28;1162;-89
2022/01/26 11:33:40;;;;;;;;;;;;;;;1.84;79.10;101947.63;4977615;28;1352;-90
2022/01/26 11:36:06;;;;;;;;;;;;;;;1.82;79.24;101936.16;4977328;28;1328;-89
2022/01/26 11:47:02;;;;;;;;;;;;;;;1.94;79.40;101909.53;4994852;28;1229;-89
2022/01/26 11:49:35;;;;;;;;;;;;;;;1.96;78.94;101912.06;4977311;28;1898;-90
2022/01/26 11:52:01;;;;;;;;;;;;;;;1.95;79.26;101911.22;4977063;28;1189;-89
2022/01/26 11:54:39;;;;;;;;;;;;;;;1.97;79.15;101902.91;4977499;28;1370;-89
2022/01/26 11:57:07;;;;;;;;;;;;;;;1.99;79.83;101908.94;4976971;28;1303;-90
2022/01/26 11:59:36;;;;;;;;;;;;;;;1.97;79.50;101911.00;4977143;28;1411;-90
2022/01/26 12:02:06;;;;;;;;;;;;;;;1.95;79.43;101915.78;4976865;28;1323;-90
2022/01/26 12:04:34;;;;;;;;;;;;;;;1.91;79.66;101915.31;4977233;28;1224;-89
2022/01/26 12:07:09;;;;;;;;;;;;;;;1.90;79.86;101919.03;4976794;28;1323;-91
2022/01/26 12:12:56;;;;;;;;;;;;;;;1.79;80.15;101911.41;4937014;29;1090;-90
2022/01/26 12:15:25;;;;;;;;;;;;;;;1.75;80.41;101905.56;4936715;29;1288;-90
2022/01/26 12:32:16;;;;;;;;;;;;;;;1.90;81.13;101865.03;4997118;28;685;-90
2022/01/26 12:34:56;;;;;;;;;;;;;;;;;;;;;
2022/01/26 12:45:20;;;;;;;;;;;;;;;2.02;81.19;101811.38;4981065;28;1225;-90
2022/01/26 12:47:45;;;;;;;;;;;;;;;2.07;81.08;101806.22;4980472;28;1277;-89
2022/01/26 12:50:11;;;;;;;;;;;;;;;2.09;81.30;101809.56;4980161;28;1965;-89
2022/01/26 12:52:36;;;;;;;;;;;;;;;2.05;81.31;101819.06;4979933;28;1201;-89
2022/01/26 12:55:02;;;;;;;;;;;;;;;1.96;80.98;101806.75;4979941;28;1205;-90
2022/01/26 12:57:27;;;;;;;;;;;;;;;1.96;81.16;101809.44;4980007;28;1189;-88
2022/01/26 13:00:00;;;;;;;;;;;;;;;1.98;81.19;101813.59;4980121;28;1163;-90
2022/01/26 13:02:25;;;;;;;;;;;;;;;2.00;81.21;101816.13;4980059;28;1240;-90
2022/01/26 13:04:57;;;;;;;;;;;;;;;1.99;81.53;101817.16;4980577;28;1251;-90
2022/01/26 13:07:22;;;;;;;;;;;;;;;2.00;81.02;101811.56;4983690;28;1193;-89
2022/01/26 13:09:47;;;;;;;;;;;;;;;1.96;81.39;101807.56;4980143;28;1898;-89
2022/01/26 13:12:15;;;;;;;;;;;;;;;1.96;81.45;101809.44;4983966;28;1006;-89
2022/01/26 13:14:45;;;;;;;;;;;;;;;2.02;81.31;101804.09;4979901;28;1198;-91
2022/01/26 13:17:41;;;;;;;;;;;;;;;2.03;81.25;101821.16;4979979;28;1371;-90
2022/01/26 13:28:56;;;;;;;;;;;;;;;2.04;81.87;101791.22;4997268;28;838;-90
2022/01/26 13:41:30;;;;;;;;;;;;;;;2.03;82.04;101783.34;4996622;28;752;-90
2022/01/26 13:44:30;;;;;;;;;;;;;;;2.04;82.23;101785.03;4978867;28;1248;-90
2022/01/26 13:52:34;;;;;;;;;;;;;;;2.07;82.41;101777.34;4996802;28;637;-89
2022/01/26 13:55:19;;;;;;;;;;;;;;;2.05;82.14;101781.25;4979651;28;1280;-89
2022/01/26 13:58:06;;;;;;;;;;;;;;;2.05;82.67;101781.25;4997009;28;1192;-90
2022/01/26 14:00:40;;;;;;;;;;;;;;;2.05;82.43;101784.81;5007150;28;894;-90
2022/01/26 14:03:07;;;;;;;;;;;;;;;2.07;82.43;101779.22;4986526;28;1647;-90
2022/01/26 14:05:32;;;;;;;;;;;;;;;2.09;82.41;101778.00;4979527;28;1343;-91
2022/01/26 14:07:57;;;;;;;;;;;;;;;2.10;82.43;101773.44;4979932;28;1292;-90
2022/01/26 14:10:23;;;;;;;;;;;;;;;2.11;82.91;101775.13;4979382;28;1898;-90
2022/01/26 14:12:49;;;;;;;;;;;;;;;2.13;82.90;101762.22;4980866;28;1236;-90
2022/01/26 14:15:20;;;;;;;;;;;;;;;2.12;82.45;101765.97;4988464;28;1690;-90
2022/01/26 14:23:02;;;;;;;;;;;;;;;2.02;82.91;101765.47;4993302;28;1376;-91
2022/01/26 14:25:30;;;;;;;;;;;;;;;2.03;82.69;101765.28;4959353;28;1341;-91
2022/01/26 14:28:01;;;;;;;;;;;;;;;2.02;83.21;101770.88;4959073;28;1320;-89
2022/01/26 14:30:50;;;;;;;;;;;;;;;2.04;82.91;101768.81;4964828;28;1894;-91
2022/01/26 14:33:37;;;;;;;;;;;;;;;2.09;83.41;101769.91;4983857;28;1327;-90
2022/01/26 14:36:27;;;;;;;;;;;;;;;2.09;83.09;101761.78;4995445;28;1403;-89
2022/01/26 14:53:19;;;;;;;;;;;;;;;2.01;83.79;101780.00;4995472;28;635;-90
2022/01/26 15:00:49;;;;;;;;;;;;;;;2.03;83.86;101773.38;5000134;28;1637;-90
2022/01/26 15:09:01;;;;;;;;;;;;;;;2.03;84.18;101786.88;4995064;28;1973;-88
2022/01/26 15:20:56;;;;;;;;;;;;;;;2.00;84.06;101802.63;4940034;28;1338;-90
2022/01/26 15:40:00;;;;;;;;;;;;;;;2.05;83.82;101805.56;5003373;28;1653;-83
2022/01/26 15:52:05;;;;;;;;;;;;;;;1.98;83.99;101783.91;4996141;28;1490;-82
2022/01/26 16:07:25;;;;;;;;;;;;;;;2.00;84.56;101772.91;4997102;28;1541;-82
2022/01/26 16:16:33;;;;;;;;;;;;;;;1.96;84.43;101771.66;5000831;28;1502;-82
2022/01/26 16:21:02;;;;;;;;;;;;;;;1.96;84.83;101761.66;5001699;28;1568;-83
2022/01/26 16:26:36;;;;;;;;;;;;;;;1.93;85.07;101775.56;5000381;28;1343;-82
2022/01/26 17:47:12;;;;;;;;;;;;;;;2.00;85.90;101757.56;5000548;28;1381;-82
2022/01/26 18:15:18;;;;;;;;;;;;;;;2.03;85.88;101746.38;4968021;28;1707;-82
2022/01/26 18:33:19;;;;;;;;;;;;;;;2.11;86.34;101721.94;4990194;28;1468;-82
2022/01/26 18:39:00;;;;;;;;;;;;;;;2.12;86.31;101712.81;4996774;28;1631;-82
2022/01/26 18:46:26;;;;;;;;;;;;;;;2.13;86.29;101708.22;4974144;28;1662;-82
2022/01/26 18:49:32;;;;;;;;;;;;;;;2.12;86.09;101706.56;4988933;28;2225;-82
2022/01/26 18:51:58;;;;;;;;;;;;;;;2.17;86.69;101714.91;4991009;28;1720;-82
2022/01/26 18:54:28;;;;;;;;;;;;;;;2.14;86.60;101713.41;4974866;28;1389;-82
2022/01/26 18:56:54;;;;;;;;;;;;;;;2.13;86.71;101703.63;4974052;28;1630;-82
2022/01/26 18:59:21;;;;;;;;;;;;;;;2.11;86.63;101694.09;4968656;28;1646;-82
2022/01/26 19:01:47;;;;;;;;;;;;;;;2.10;86.60;101693.25;4966061;28;1385;-82
2022/01/26 19:04:12;;;;;;;;;;;;;;;2.11;86.69;101697.63;4993780;28;1527;-82
2022/01/26 19:06:41;;;;;;;;;;;;;;;2.12;86.90;101688.50;4981226;28;1488;-82
2022/01/26 19:09:06;;;;;;;;;;;;;;;2.12;86.86;101691.19;4998107;28;1918;-81
2022/01/26 19:11:32;;;;;;;;;;;;;;;2.17;86.78;101690.59;4993954;28;1382;-83
2022/01/26 19:13:59;;;;;;;;;;;;;;;2.16;86.57;101680.81;4976798;28;1242;-82
2022/01/26 19:16:33;;;;;;;;;;;;;;;2.19;86.73;101683.13;4977016;28;1359;-81
2022/01/26 19:21:50;;;;;;;;;;;;;;;2.21;86.51;101689.19;4999156;28;1600;-82
2022/01/26 19:26:52;;;;;;;;;;;;;;;2.21;86.56;101681.09;4994407;28;1177;-81
2022/01/26 19:32:33;;;;;;;;;;;;;;;2.18;86.93;101663.41;4987587;28;1318;-82
2022/01/26 19:50:54;;;;;;;;;;;;;;;2.21;86.42;101654.06;4994058;28;1902;-82
2022/01/26 19:53:19;;;;;;;;;;;;;;;2.20;87.00;101655.94;4994245;28;1734;-82
2022/01/26 19:55:45;;;;;;;;;;;;;;;2.20;86.48;101650.53;4970897;28;1446;-82
2022/01/26 19:58:10;;;;;;;;;;;;;;;2.22;86.62;101653.84;4972347;28;1367;-82
2022/01/26 20:00:36;;;;;;;;;;;;;;;2.26;86.57;101654.31;4977060;28;1449;-82
2022/01/26 20:03:02;;;;;;;;;;;;;;;2.27;87.00;101642.47;4977243;28;1699;-82